Aviation Digital Data Service (ADDS)

Output produced by METARs form (1826 UTC 16 August 2018)
found at http://www.aviationweather.gov/adds/metars/
 
UATE 161800Z 02004MPS CAVOK 24/11 Q1013 R30/0///70 NOSIG RMK QFE758/1011
TAF UATE 161706Z 1618/1718 VRB02MPS 9999 NSC TX32/1710Z TN18/1702Z
       
UATT 161800Z 00000MPS 7000 NSC 18/07 Q1018 R31/70D NOSIG RMK QFE743/0991
TAF UATT 161700Z 1618/1718 36005MPS 5000 FU NSC TX29/1711Z TN13/1701Z 
     FM170500 20005MPS CAVOK
       
UAAA 161800Z 28005MPS 9999 VCTS BKN050CB OVC100 28/08 Q1011 R23L/CLRD65 TEMPO VRB15MPS 3000 TSRA SQ
TAF UAAA 161700Z 1618/1718 16005MPS 9999 BKN050CB BKN100 TX33/1709Z TN17/1701Z 
     TEMPO 1618/1703 VRB17MPS 3000 TSRA SQ BKN020CB OVC100 
     TEMPO 1706/1716 VRB15MPS 3000 -TSRA SQ BKN030CB OVC100
       
UAAA 161800Z 28005MPS 9999 VCTS BKN050CB OVC100 28/08 Q1011 R23L/CLRD65 TEMPO VRB15MPS 3000 TSRA SQ
TAF UAAA 161700Z 1618/1718 16005MPS 9999 BKN050CB BKN100 TX33/1709Z TN17/1701Z 
     TEMPO 1618/1703 VRB17MPS 3000 TSRA SQ BKN020CB OVC100 
     TEMPO 1706/1716 VRB15MPS 3000 -TSRA SQ BKN030CB OVC100
       
TAF UAAH 161102Z 1612/1621 20005MPS 6000 SCT040 SCT100
       
UAAT 161300Z 07002MPS 9999 FEW050CB SCT100 32/09 Q1006 R02/CLRD65 NOSIG RMK QFE704/0939
TAF UAAT 161101Z 1612/1621 VRB02MPS 9999 SCT050CB BKN100 
     TEMPO 1612/1618 04006MPS
       
UACC 161800Z VRB01MPS 9999 SCT043CB BKN076 14/12 Q1011 R04/25//65 NOSIG RMK QFE727/0969 FLASHES
TAF UACC 161700Z 1618/1718 30006MPS 9999 SCT020CB BKN080 TX26/1709Z TN10/1623Z 
     TEMPO 1618/1621 33005MPS 
     TEMPO 1621/1702 3000 BR SCT004 
     BECMG 1707/1709 NSC
       
UACK 161700Z 33004MPS CAVOK 14/13 Q1012 R20/010070 NOSIG RMK QFE735/0981
TAF UACK 161100Z 1612/1621 VRB02MPS 9999 SCT020 BKN033 
     TEMPO 1612/1621 32006MPS 5000 -SHRA BR BKN015CB
       
UADD 161800Z 24003MPS 9999 NSC 21/07 Q1012 R13/0///65 NOSIG RMK QFE702/0937
TAF UADD 161700Z 1618/1703 22005G10MPS 9999 NSC
       
UAII 161800Z 01003MPS CAVOK 26/06 Q1011 R10/0///70 NOSIG RMK QFE723/0964
TAF UAII 161700Z 1618/1718 33006MPS CAVOK TX36/1710Z TN20/1701Z 
     TEMPO 1618/1702 10004MPS 
     TEMPO 1704/1712 05005G10MPS
       
UAKD 161300Z 32010MPS 9999 FEW060 25/08 Q1012 R22/0///65 NOSIG RMK QFE726/0968
TAF UAKD 161100Z 1612/1621 32010MPS 9999 SCT040 SCT100 
     TEMPO 1612/1618 35013MPS 
     TEMPO 1618/1621 35013MPS
       
UAKK 161800Z 02007MPS 9999 TS BKN033CB 15/14 Q1010 R23/2///60 TEMPO VRB15MPS 3000 TSRA SQ RMK QFE711/0948
TAF UAKK 161700Z 1618/1718 33006MPS 9999 SCT030CB BKN100 TX24/1710Z TN10/1623Z 
     TEMPO 1618/1622 VRB15MPS 2000 TSRA SQ BKN010CB 
     TEMPO 1622/1703 2000 SHRA BR SCT004 BKN010CB 
     TEMPO 1703/1712 36008MPS 5000 -SHRA BKN030CB
       
UAOO 161800Z 36003MPS CAVOK 19/06 Q1014 R05/CLRD70 NOSIG RMK QFE749/0999
TAF UAOO 161700Z 1618/1703 33004MPS CAVOK
       
UARR 161800Z 17004MPS CAVOK 18/06 Q1016 R22/CLRD70 NOSIG RMK QFE758/1011
TAF UARR 161700Z 1618/1703 VRB02MPS CAVOK
       
UASK 161800Z 13002MPS 9999 BKN180 18/12 Q1006 R30/090060 NOSIG RMK QFE729/0973
TAF UASK 161703Z 1618/1703 12004MPS 9999 SCT030CB BKN100 
     TEMPO 1618/1624 17005G10MPS 4000 -SHRA FEW007 BKN017CB
       
UASP 161800Z VRB01MPS 9999 VCTS SCT040CB BKN120 23/11 Q1006 R03/0///70 NOSIG RMK QFE744/0992
TAF UASP 161700Z 1618/1703 09007MPS 9999 OVC020CB 
     TEMPO 1618/1622 VRB17MPS 2100 -TSRA SQ SCT006 
     TEMPO 1622/1703 1000 SHRA BR SCT006
       
UASS 161330Z 11005MPS 9999 BKN043CB 31/06 Q1005 NOSIG RMK QFE736/0981
TAF UASS 161355Z 1615/1624 14005MPS 9999 BKN040CB 
     TEMPO 1615/1621 -SHRA
       
UATE 161800Z 02004MPS CAVOK 24/11 Q1013 R30/0///70 NOSIG RMK QFE758/1011
TAF UATE 161706Z 1618/1718 VRB02MPS 9999 NSC TX32/1710Z TN18/1702Z
       
UATG 161800Z 34003MPS CAVOK 22/06 Q1016 R14/CLRD70 NOSIG RMK QFE764/1018
TAF UATG 161701Z 1618/1718 VRB02MPS 9999 SCT033 TX33/1712Z TN18/1701Z 
     BECMG 1702/1704 09007MPS
       
UATT 161800Z 00000MPS 7000 NSC 18/07 Q1018 R31/70D NOSIG RMK QFE743/0991
TAF UATT 161700Z 1618/1718 36005MPS 5000 FU NSC TX29/1711Z TN13/1701Z 
     FM170500 20005MPS CAVOK
       
UAUU 161800Z 27002MPS CAVOK 14/11 Q1015 R33/CLRD70 NOSIG RMK QFE746/0994
TAF UAUU 161700Z 1618/1703 25005MPS 9999 SCT030 
     BECMG 1621/1701 2000 BR
       
UACC 161800Z VRB01MPS 9999 SCT043CB BKN076 14/12 Q1011 R04/25//65 NOSIG RMK QFE727/0969 FLASHES
TAF UACC 161700Z 1618/1718 30006MPS 9999 SCT020CB BKN080 TX26/1709Z TN10/1623Z 
     TEMPO 1618/1621 33005MPS 
     TEMPO 1621/1702 3000 BR SCT004 
     BECMG 1707/1709 NSC
       
UATG 161800Z 34003MPS CAVOK 22/06 Q1016 R14/CLRD70 NOSIG RMK QFE764/1018
TAF UATG 161701Z 1618/1718 VRB02MPS 9999 SCT033 TX33/1712Z TN18/1701Z 
     BECMG 1702/1704 09007MPS
       
TAF UAAH 161102Z 1612/1621 20005MPS 6000 SCT040 SCT100
       
UAKK 161800Z 02007MPS 9999 TS BKN033CB 15/14 Q1010 R23/2///60 TEMPO VRB15MPS 3000 TSRA SQ RMK QFE711/0948
TAF UAKK 161700Z 1618/1718 33006MPS 9999 SCT030CB BKN100 TX24/1710Z TN10/1623Z 
     TEMPO 1618/1622 VRB15MPS 2000 TSRA SQ BKN010CB 
     TEMPO 1622/1703 2000 SHRA BR SCT004 BKN010CB 
     TEMPO 1703/1712 36008MPS 5000 -SHRA BKN030CB
       
UAUU 161800Z 27002MPS CAVOK 14/11 Q1015 R33/CLRD70 NOSIG RMK QFE746/0994
TAF UAUU 161700Z 1618/1703 25005MPS 9999 SCT030 
     BECMG 1621/1701 2000 BR
       
UASS 161330Z 11005MPS 9999 BKN043CB 31/06 Q1005 NOSIG RMK QFE736/0981
TAF UASS 161355Z 1615/1624 14005MPS 9999 BKN040CB 
     TEMPO 1615/1621 -SHRA
       
UAII 161800Z 01003MPS CAVOK 26/06 Q1011 R10/0///70 NOSIG RMK QFE723/0964
TAF UAII 161700Z 1618/1718 33006MPS CAVOK TX36/1710Z TN20/1701Z 
     TEMPO 1618/1702 10004MPS 
     TEMPO 1704/1712 05005G10MPS
       
UARR 161800Z 17004MPS CAVOK 18/06 Q1016 R22/CLRD70 NOSIG RMK QFE758/1011
TAF UARR 161700Z 1618/1703 VRB02MPS CAVOK
       
UASK 161800Z 13002MPS 9999 BKN180 18/12 Q1006 R30/090060 NOSIG RMK QFE729/0973
TAF UASK 161703Z 1618/1703 12004MPS 9999 SCT030CB BKN100 
     TEMPO 1618/1624 17005G10MPS 4000 -SHRA FEW007 BKN017CB
       
UAKD 161300Z 32010MPS 9999 FEW060 25/08 Q1012 R22/0///65 NOSIG RMK QFE726/0968
TAF UAKD 161100Z 1612/1621 32010MPS 9999 SCT040 SCT100 
     TEMPO 1612/1618 35013MPS 
     TEMPO 1618/1621 35013MPS